createdAt,value
2023-01-13T00:00:55.616Z,36.47
2023-01-13T00:01:56.322Z,37.60
2023-01-13T00:02:57.015Z,38.42
2023-01-13T00:03:57.732Z,39.25
2023-01-13T00:04:58.460Z,40.06
2023-01-13T00:05:59.185Z,40.78
2023-01-13T00:06:59.874Z,41.91
2023-01-13T00:08:00.568Z,42.83
2023-01-13T00:09:01.241Z,43.65
2023-01-13T00:10:01.956Z,44.57
2023-01-13T00:11:02.735Z,31.76
2023-01-13T00:12:03.412Z,34.53
2023-01-13T00:13:04.056Z,0.00
2023-01-13T00:14:04.761Z,0.00
2023-01-13T00:15:05.462Z,0.00
2023-01-13T00:16:06.236Z,0.00
2023-01-13T00:17:06.897Z,0.00
2023-01-13T00:18:07.601Z,0.00
2023-01-13T00:19:08.297Z,0.00
2023-01-13T00:20:08.999Z,0.00
2023-01-13T00:21:09.708Z,0.00
2023-01-13T00:22:10.380Z,0.00
2023-01-13T00:23:11.086Z,0.00
2023-01-13T00:24:11.763Z,0.00
2023-01-13T00:25:12.439Z,0.00
2023-01-13T00:26:13.172Z,0.00
2023-01-13T00:27:13.874Z,0.00
2023-01-13T00:28:14.553Z,0.00
2023-01-13T00:29:15.240Z,0.00
2023-01-13T00:30:15.948Z,0.00
2023-01-13T00:31:16.749Z,0.00
2023-01-13T00:32:17.412Z,0.00
2023-01-13T00:33:18.105Z,0.00
2023-01-13T00:34:18.795Z,0.00
2023-01-13T00:35:19.476Z,0.00
2023-01-13T00:36:20.190Z,0.00
2023-01-13T00:37:20.899Z,0.00
2023-01-13T00:38:21.589Z,0.00
2023-01-13T00:39:22.271Z,0.00
2023-01-13T00:40:22.975Z,0.00
2023-01-13T00:41:23.745Z,0.00
2023-01-13T00:42:24.406Z,0.00
2023-01-13T00:43:25.085Z,0.00
2023-01-13T00:44:25.768Z,0.00
2023-01-13T00:45:26.457Z,0.00
2023-01-13T00:46:27.168Z,0.00
2023-01-13T00:47:27.828Z,0.00
2023-01-13T00:48:28.529Z,0.00
2023-01-13T00:49:29.200Z,0.00
2023-01-13T00:50:29.892Z,0.00
2023-01-13T00:51:30.586Z,0.00
2023-01-13T00:52:31.264Z,0.00
2023-01-13T00:53:31.944Z,0.00
2023-01-13T00:54:32.644Z,0.00
2023-01-13T00:55:33.360Z,0.00
2023-01-13T00:56:40.072Z,0.00
2023-01-13T00:57:35.806Z,0.00
2023-01-13T00:58:35.510Z,0.00
2023-01-13T00:59:36.203Z,0.00
2023-01-13T01:00:36.886Z,0.00
2023-01-13T01:01:37.948Z,0.00
2023-01-13T01:02:38.187Z,0.00
2023-01-13T01:03:38.849Z,0.00
2023-01-13T01:04:39.578Z,1.43
2023-01-13T01:05:40.299Z,3.69
2023-01-13T01:06:41.014Z,4.82
2023-01-13T01:07:41.704Z,7.48
2023-01-13T01:08:42.369Z,9.23
2023-01-13T01:09:43.051Z,11.58
2023-01-13T01:10:43.768Z,14.67
2023-01-13T01:11:44.519Z,19.28
2023-01-13T01:12:45.208Z,22.77
2023-01-13T01:13:45.861Z,26.46
2023-01-13T01:14:46.532Z,28.31
2023-01-13T01:15:47.271Z,30.15
2023-01-13T01:16:48.200Z,31.71
2023-01-13T01:17:48.889Z,34.38
2023-01-13T01:18:49.586Z,37.55
2023-01-13T01:19:50.288Z,42.58
2023-01-13T01:20:50.989Z,45.97
2023-01-13T01:21:52.248Z,49.05
2023-01-13T01:22:52.413Z,53.97
2023-01-13T01:23:53.153Z,55.74
2023-01-13T01:24:53.800Z,58.92
2023-01-13T01:25:54.514Z,61.80
2023-01-13T01:26:55.245Z,64.26
2023-01-13T01:27:55.909Z,66.01
2023-01-13T01:28:56.564Z,67.03
2023-01-13T01:29:57.250Z,68.78
2023-01-13T01:30:57.946Z,69.91
2023-01-13T01:31:58.700Z,71.04
2023-01-13T01:32:59.400Z,67.48
2023-01-13T01:34:00.127Z,66.96
2023-01-13T01:35:00.816Z,67.07
2023-01-13T01:36:01.512Z,66.86
2023-01-13T01:37:02.701Z,60.91
2023-01-13T01:38:02.928Z,55.77
2023-01-13T01:39:03.585Z,54.95
2023-01-13T01:40:04.264Z,53.00
2023-01-13T01:41:04.973Z,99.99
2023-01-13T01:42:05.696Z,99.99
2023-01-13T01:43:06.399Z,99.99
2023-01-13T01:44:07.367Z,99.99
2023-01-13T01:45:07.579Z,99.99
2023-01-13T01:46:08.401Z,99.99
2023-01-13T01:47:09.115Z,99.99
2023-01-13T01:48:09.819Z,99.99
2023-01-13T01:49:10.540Z,99.99
2023-01-13T01:50:11.205Z,99.99
2023-01-13T01:51:11.917Z,99.99
2023-01-13T01:52:12.696Z,99.99
2023-01-13T01:53:13.443Z,99.99
2023-01-13T01:54:14.154Z,99.99
2023-01-13T01:55:14.858Z,99.99
2023-01-13T01:56:15.563Z,99.99
2023-01-13T01:57:16.721Z,99.99
2023-01-13T01:58:16.924Z,99.99
2023-01-13T01:59:17.604Z,99.99
2023-01-13T02:00:18.304Z,99.99
2023-01-13T02:01:19.128Z,99.99
2023-01-13T02:02:20.234Z,99.99
2023-01-13T02:03:20.422Z,99.99
2023-01-13T02:04:21.098Z,99.99
2023-01-13T02:05:21.807Z,99.99
2023-01-13T02:06:22.508Z,99.99
2023-01-13T02:07:23.208Z,99.99
2023-01-13T02:08:23.916Z,99.99
2023-01-13T02:09:24.616Z,99.99
2023-01-13T02:10:25.331Z,99.99
2023-01-13T02:11:26.029Z,99.99
2023-01-13T02:12:27.235Z,99.99
2023-01-13T02:13:27.413Z,99.99
2023-01-13T02:14:28.101Z,99.99
2023-01-13T02:15:28.792Z,99.99
2023-01-13T02:16:29.545Z,99.99
2023-01-13T02:17:30.193Z,99.99
2023-01-13T02:18:30.890Z,99.99
2023-01-13T02:19:31.626Z,99.99
2023-01-13T02:20:32.303Z,99.99
2023-01-13T02:21:33.017Z,99.99
2023-01-13T02:22:33.738Z,99.99
2023-01-13T02:23:34.443Z,99.99
2023-01-13T02:24:35.115Z,99.99
2023-01-13T02:25:35.916Z,99.99
2023-01-13T02:26:36.787Z,99.99
2023-01-13T02:27:37.584Z,99.99
2023-01-13T02:28:38.318Z,99.99
2023-01-13T02:29:38.959Z,99.99
2023-01-13T02:30:39.634Z,99.99
2023-01-13T02:31:40.407Z,99.99
2023-01-13T02:32:41.081Z,99.99
2023-01-13T02:33:41.766Z,99.99
2023-01-13T02:34:42.486Z,99.99
2023-01-13T02:35:43.166Z,99.99
2023-01-13T02:36:43.853Z,99.99
2023-01-13T02:37:44.560Z,99.99
2023-01-13T02:38:45.236Z,99.99
2023-01-13T02:39:45.918Z,99.99
2023-01-13T02:40:46.609Z,99.99
2023-01-13T02:41:47.316Z,99.99
2023-01-13T02:42:48.047Z,99.99
2023-01-13T02:43:48.785Z,99.99
2023-01-13T02:44:49.448Z,99.99
2023-01-13T02:45:50.238Z,99.99
2023-01-13T02:46:50.879Z,99.99
2023-01-13T02:47:51.552Z,99.99
2023-01-13T02:48:52.256Z,99.99
2023-01-13T02:49:52.961Z,99.99
2023-01-13T02:50:53.641Z,99.99
2023-01-13T02:51:54.339Z,99.99
2023-01-13T02:52:55.062Z,99.99
2023-01-13T02:53:55.763Z,99.99
2023-01-13T02:54:56.436Z,99.99
2023-01-13T02:55:57.139Z,99.99
2023-01-13T02:56:57.841Z,99.99
2023-01-13T02:57:58.577Z,99.99
2023-01-13T02:58:59.266Z,99.99
2023-01-13T02:59:59.920Z,99.99
2023-01-13T03:01:00.732Z,99.99
2023-01-13T03:02:01.546Z,99.99
2023-01-13T03:03:02.375Z,99.99
2023-01-13T03:04:03.068Z,99.99
2023-01-13T03:05:03.771Z,99.99
2023-01-13T03:06:04.475Z,99.99
2023-01-13T03:07:05.183Z,99.99
2023-01-13T03:08:05.905Z,99.99
2023-01-13T03:09:06.606Z,99.99
2023-01-13T03:10:07.322Z,99.99
2023-01-13T03:11:08.024Z,99.99
2023-01-13T03:12:08.730Z,99.99
2023-01-13T03:13:09.492Z,99.99
2023-01-13T03:14:10.196Z,99.99
2023-01-13T03:15:10.875Z,99.99
2023-01-13T03:16:11.718Z,99.99
2023-01-13T03:17:12.409Z,99.99
2023-01-13T03:18:13.139Z,99.99
2023-01-13T03:19:13.849Z,99.99
2023-01-13T03:20:14.541Z,99.99
2023-01-13T03:21:15.241Z,99.99
2023-01-13T03:22:15.948Z,99.99
2023-01-13T03:23:16.675Z,99.99
2023-01-13T03:24:17.412Z,99.99
2023-01-13T03:25:18.089Z,99.99
2023-01-13T03:26:18.791Z,99.99
2023-01-13T03:27:19.512Z,99.99
2023-01-13T03:28:20.236Z,99.99
2023-01-13T03:29:20.937Z,99.99
2023-01-13T03:30:21.623Z,99.99
2023-01-13T03:31:22.331Z,99.99
2023-01-13T03:32:23.039Z,99.99
2023-01-13T03:33:24.230Z,99.99
2023-01-13T03:34:24.437Z,99.99
2023-01-13T03:35:25.140Z,99.99
2023-01-13T03:36:25.850Z,99.99
2023-01-13T03:37:26.554Z,99.99
2023-01-13T03:38:27.276Z,99.99
2023-01-13T03:39:27.976Z,99.99
2023-01-13T03:40:28.689Z,99.99
2023-01-13T03:41:29.397Z,99.99
2023-01-13T03:42:30.099Z,99.99
2023-01-13T03:43:31.255Z,99.99
2023-01-13T03:44:32.783Z,99.99
2023-01-13T03:45:32.141Z,99.99
2023-01-13T03:46:32.857Z,99.99
2023-01-13T03:47:33.558Z,99.99
2023-01-13T03:48:34.270Z,99.99
2023-01-13T03:49:34.984Z,99.99
2023-01-13T03:50:35.692Z,99.99
2023-01-13T03:51:36.403Z,99.99
2023-01-13T03:52:37.112Z,99.99
2023-01-13T03:53:38.213Z,99.99
2023-01-13T03:54:38.441Z,99.99
2023-01-13T03:55:39.146Z,99.99
2023-01-13T03:56:39.855Z,99.99
2023-01-13T03:57:40.606Z,99.99
2023-01-13T03:58:41.329Z,99.99
2023-01-13T03:59:41.996Z,99.99
2023-01-13T04:00:42.659Z,99.99
2023-01-13T04:01:43.513Z,99.99
2023-01-13T04:02:44.239Z,99.99
2023-01-13T04:03:45.317Z,99.99
2023-01-13T04:04:45.528Z,99.99
2023-01-13T04:05:46.204Z,99.99
2023-01-13T04:06:46.914Z,99.99
2023-01-13T04:07:47.616Z,99.99
2023-01-13T04:08:48.717Z,99.99
2023-01-13T04:09:48.924Z,99.99
2023-01-13T04:10:49.637Z,99.99
2023-01-13T04:11:50.337Z,99.99
2023-01-13T04:12:51.048Z,99.99
2023-01-13T04:13:52.258Z,99.99
2023-01-13T04:14:52.457Z,99.99
2023-01-13T04:15:53.249Z,99.99
2023-01-13T04:16:53.919Z,99.99
2023-01-13T04:17:54.629Z,99.99
2023-01-13T04:18:55.349Z,99.99
2023-01-13T04:19:56.052Z,99.99
2023-01-13T04:20:56.763Z,99.99
2023-01-13T04:21:57.469Z,99.99
2023-01-13T04:22:58.171Z,99.99
2023-01-13T04:23:58.896Z,99.99
2023-01-13T04:24:59.615Z,99.99
2023-01-13T04:26:00.326Z,99.99
2023-01-13T04:27:01.035Z,99.99
2023-01-13T04:28:01.734Z,99.99
2023-01-13T04:29:02.481Z,99.99
2023-01-13T04:30:03.177Z,99.99
2023-01-13T04:31:03.958Z,99.99
2023-01-13T04:32:04.604Z,99.99
2023-01-13T04:33:05.316Z,99.99
2023-01-13T04:34:06.212Z,99.99
2023-01-13T04:35:06.924Z,99.99
2023-01-13T04:36:07.628Z,99.99
2023-01-13T04:37:08.333Z,99.99
2023-01-13T04:38:09.043Z,99.99
2023-01-13T04:39:09.784Z,99.99
2023-01-13T04:40:10.457Z,99.99
2023-01-13T04:41:11.174Z,99.99
2023-01-13T04:42:11.877Z,99.99
2023-01-13T04:43:12.603Z,99.99
2023-01-13T04:44:13.764Z,99.99
2023-01-13T04:45:13.965Z,99.99
2023-01-13T04:46:14.678Z,99.99
2023-01-13T04:47:15.373Z,99.99
2023-01-13T04:48:16.078Z,99.99
2023-01-13T04:49:17.220Z,99.99
2023-01-13T04:50:17.429Z,99.99
2023-01-13T04:51:18.139Z,99.99
2023-01-13T04:52:18.847Z,99.99
2023-01-13T04:53:19.554Z,99.99
2023-01-13T04:54:20.718Z,99.99
2023-01-13T04:55:20.928Z,99.99
2023-01-13T04:56:21.630Z,99.99
2023-01-13T04:57:22.341Z,99.99
2023-01-13T04:58:23.054Z,99.99
2023-01-13T04:59:23.788Z,99.99
2023-01-13T05:00:24.491Z,99.99
2023-01-13T05:01:25.245Z,99.99
2023-01-13T05:02:25.894Z,99.99
2023-01-13T05:03:26.604Z,99.99
2023-01-13T05:04:27.763Z,99.99
2023-01-13T05:05:28.196Z,99.99
2023-01-13T05:06:28.903Z,99.99
2023-01-13T05:07:29.618Z,99.99
2023-01-13T05:08:30.321Z,99.99
2023-01-13T05:09:31.220Z,99.99
2023-01-13T05:10:31.927Z,99.99
2023-01-13T05:11:32.652Z,99.99
2023-01-13T05:12:33.362Z,99.99
2023-01-13T05:13:34.071Z,99.99
2023-01-13T05:14:34.826Z,99.99
2023-01-13T05:15:35.589Z,99.99
2023-01-13T05:16:36.259Z,99.99
2023-01-13T05:17:36.967Z,99.99
2023-01-13T05:18:37.670Z,99.99
2023-01-13T05:19:38.389Z,99.99
2023-01-13T05:20:39.102Z,99.99
2023-01-13T05:21:39.794Z,99.99
2023-01-13T05:22:40.500Z,99.99
2023-01-13T05:23:41.209Z,99.99
2023-01-13T05:24:41.930Z,99.99
2023-01-13T05:25:44.264Z,99.99
2023-01-13T05:26:43.246Z,99.99
2023-01-13T05:27:43.960Z,99.99
2023-01-13T05:28:44.666Z,99.99
2023-01-13T05:29:45.744Z,99.99
2023-01-13T05:30:45.997Z,99.99
2023-01-13T05:31:46.628Z,99.99
2023-01-13T05:32:47.364Z,99.99
2023-01-13T05:33:48.043Z,99.99
2023-01-13T05:34:48.779Z,99.99
2023-01-13T05:35:49.484Z,99.99
2023-01-13T05:36:50.188Z,99.99
2023-01-13T05:37:50.906Z,99.99
2023-01-13T05:38:51.602Z,99.99
2023-01-13T05:39:52.731Z,99.99
2023-01-13T05:40:52.931Z,99.99
2023-01-13T05:41:53.646Z,99.99
2023-01-13T05:42:54.368Z,99.99
2023-01-13T05:43:55.058Z,99.99
2023-01-13T05:44:56.263Z,99.99
2023-01-13T05:45:56.464Z,99.99
2023-01-13T05:46:57.164Z,99.99
2023-01-13T05:47:57.870Z,99.99
2023-01-13T05:48:58.569Z,99.99
2023-01-13T05:49:59.728Z,99.99
2023-01-13T05:50:59.933Z,99.99
2023-01-13T05:52:00.637Z,99.99
2023-01-13T05:53:01.341Z,99.99
2023-01-13T05:54:02.048Z,99.99
2023-01-13T05:55:03.226Z,99.99
2023-01-13T05:56:03.448Z,99.99
2023-01-13T05:57:04.156Z,99.99
2023-01-13T05:58:04.859Z,99.99
2023-01-13T05:59:05.565Z,99.99
2023-01-13T06:00:06.760Z,99.99
2023-01-13T06:01:07.131Z,99.99
2023-01-13T06:02:07.859Z,99.99
2023-01-13T06:03:08.601Z,99.99
2023-01-13T06:04:09.294Z,99.99
2023-01-13T06:05:09.986Z,99.99
2023-01-13T06:06:10.686Z,99.99
2023-01-13T06:07:11.396Z,99.99
2023-01-13T06:08:12.096Z,99.99
2023-01-13T06:09:12.814Z,99.99
2023-01-13T06:10:13.734Z,99.99
2023-01-13T06:11:14.438Z,99.99
2023-01-13T06:12:15.159Z,99.99
2023-01-13T06:13:15.848Z,99.99
2023-01-13T06:14:16.560Z,99.99
2023-01-13T06:15:17.782Z,99.99
2023-01-13T06:16:18.006Z,99.99
2023-01-13T06:17:18.663Z,99.99
2023-01-13T06:18:19.366Z,99.99
2023-01-13T06:19:20.096Z,99.99
2023-01-13T06:20:21.230Z,99.99
2023-01-13T06:21:21.438Z,99.99
2023-01-13T06:22:22.145Z,99.99
2023-01-13T06:23:22.853Z,99.99
2023-01-13T06:24:23.568Z,99.99
2023-01-13T06:25:24.743Z,99.99
2023-01-13T06:26:24.944Z,99.99
2023-01-13T06:27:25.652Z,99.99
2023-01-13T06:28:26.366Z,99.99
2023-01-13T06:29:27.070Z,99.99
2023-01-13T06:30:28.256Z,99.99
2023-01-13T06:31:28.547Z,99.99
2023-01-13T06:32:29.283Z,99.99
2023-01-13T06:33:30.003Z,99.99
2023-01-13T06:34:30.697Z,99.99
2023-01-13T06:35:31.729Z,99.99
2023-01-13T06:36:31.948Z,99.99
2023-01-13T06:37:32.643Z,99.99
2023-01-13T06:38:33.347Z,99.99
2023-01-13T06:39:34.056Z,99.99
2023-01-13T06:40:35.226Z,99.99
2023-01-13T06:41:35.433Z,99.99
2023-01-13T06:42:36.135Z,99.99
2023-01-13T06:43:36.847Z,99.99
2023-01-13T06:44:37.549Z,99.99
2023-01-13T06:45:38.308Z,99.99
2023-01-13T06:46:39.091Z,99.99
2023-01-13T06:47:39.752Z,99.99
2023-01-13T06:48:40.454Z,99.99
2023-01-13T06:49:41.188Z,99.99
2023-01-13T06:50:42.249Z,99.99
2023-01-13T06:51:42.439Z,99.99
2023-01-13T06:52:43.172Z,99.99
2023-01-13T06:53:43.886Z,99.99
2023-01-13T06:54:44.593Z,99.99
2023-01-13T06:55:45.729Z,99.99
2023-01-13T06:56:45.939Z,99.99
2023-01-13T06:57:46.650Z,99.99
2023-01-13T06:58:47.369Z,99.99
2023-01-13T06:59:48.831Z,99.99
2023-01-13T07:00:48.781Z,99.99
2023-01-13T07:01:49.910Z,99.99
2023-01-13T07:02:50.231Z,99.99
2023-01-13T07:03:50.902Z,99.99
2023-01-13T07:04:51.604Z,99.99
2023-01-13T07:05:52.732Z,99.99
2023-01-13T07:06:52.949Z,99.99
2023-01-13T07:07:53.647Z,99.99
2023-01-13T07:08:54.356Z,99.99
2023-01-13T07:09:55.059Z,99.99
2023-01-13T07:10:56.233Z,99.99
2023-01-13T07:11:56.437Z,99.99
2023-01-13T07:12:57.150Z,99.99
2023-01-13T07:13:57.853Z,99.99
2023-01-13T07:14:58.568Z,99.99
2023-01-13T07:15:59.440Z,99.99
2023-01-13T07:17:00.125Z,99.99
2023-01-13T07:18:00.803Z,99.99
2023-01-13T07:19:01.588Z,99.99
2023-01-13T07:20:02.262Z,99.99
2023-01-13T07:21:03.237Z,99.99
2023-01-13T07:22:03.936Z,99.99
2023-01-13T07:23:04.718Z,99.99
2023-01-13T07:24:05.354Z,99.99
2023-01-13T07:25:06.066Z,99.99
2023-01-13T07:26:07.240Z,99.99
2023-01-13T07:27:07.450Z,99.99
2023-01-13T07:28:08.191Z,99.99
2023-01-13T07:29:08.903Z,99.99
2023-01-13T07:30:09.607Z,99.99
2023-01-13T07:31:10.807Z,99.99
2023-01-13T07:32:10.960Z,99.99
2023-01-13T07:33:11.660Z,99.99
2023-01-13T07:34:12.376Z,99.99
2023-01-13T07:35:13.076Z,99.99
2023-01-13T07:36:14.240Z,99.99
2023-01-13T07:37:14.473Z,99.99
2023-01-13T07:38:15.189Z,99.99
2023-01-13T07:39:15.890Z,99.99
2023-01-13T07:40:16.603Z,99.99
2023-01-13T07:41:17.736Z,99.99
2023-01-13T07:42:17.951Z,99.99
2023-01-13T07:43:18.655Z,99.99
2023-01-13T07:44:19.365Z,99.99
2023-01-13T07:45:20.064Z,99.99
2023-01-13T07:46:21.273Z,99.99
2023-01-13T07:47:21.477Z,99.99
2023-01-13T07:48:22.161Z,99.99
2023-01-13T07:49:22.867Z,99.99
2023-01-13T07:50:23.585Z,99.99
2023-01-13T07:51:24.756Z,99.99
2023-01-13T07:52:24.942Z,99.99
2023-01-13T07:53:25.698Z,99.99
2023-01-13T07:54:39.777Z,99.99
2023-01-13T07:55:27.985Z,99.99
2023-01-13T07:56:27.737Z,99.99
2023-01-13T07:57:28.442Z,99.99
2023-01-13T07:58:29.155Z,99.99
2023-01-13T07:59:29.849Z,99.99
2023-01-13T08:00:30.573Z,99.99
2023-01-13T08:01:32.033Z,99.99
2023-01-13T08:02:32.082Z,99.99
2023-01-13T08:03:32.785Z,99.99
2023-01-13T08:04:33.486Z,99.99
2023-01-13T08:05:34.193Z,99.99
2023-01-13T08:06:34.909Z,99.99
2023-01-13T08:07:35.617Z,99.99
2023-01-13T08:08:36.325Z,99.99
2023-01-13T08:09:37.024Z,99.99
2023-01-13T08:10:37.733Z,99.99
2023-01-13T08:11:38.736Z,99.99
2023-01-13T08:12:38.941Z,99.99
2023-01-13T08:13:39.642Z,99.99
2023-01-13T08:14:40.350Z,99.99
2023-01-13T08:15:41.054Z,99.99
2023-01-13T08:16:41.899Z,99.99
2023-01-13T08:17:42.613Z,99.99
2023-01-13T08:18:43.244Z,99.99
2023-01-13T08:19:43.950Z,99.99
2023-01-13T08:20:44.659Z,99.99
2023-01-13T08:21:45.740Z,99.99
2023-01-13T08:22:45.945Z,99.99
2023-01-13T08:23:46.651Z,99.99
2023-01-13T08:24:47.369Z,99.99
2023-01-13T08:25:48.103Z,99.99
2023-01-13T08:26:49.255Z,99.99
2023-01-13T08:27:49.462Z,99.99
2023-01-13T08:28:50.167Z,99.99
2023-01-13T08:29:50.875Z,99.99
2023-01-13T08:30:51.671Z,99.99
2023-01-13T08:31:52.792Z,99.99
2023-01-13T08:32:52.976Z,99.99
2023-01-13T08:33:53.666Z,99.99
2023-01-13T08:34:54.383Z,99.99
2023-01-13T08:35:55.076Z,99.99
2023-01-13T08:36:56.245Z,99.99
2023-01-13T08:37:56.444Z,99.99
2023-01-13T08:38:57.152Z,99.99
2023-01-13T08:39:57.856Z,99.99
2023-01-13T08:40:58.566Z,99.99
2023-01-13T08:41:59.299Z,99.99
2023-01-13T08:42:59.981Z,99.99
2023-01-13T08:44:00.699Z,99.99
2023-01-13T08:45:01.396Z,99.99
2023-01-13T08:46:02.199Z,99.99
2023-01-13T08:47:02.885Z,99.99
2023-01-13T08:48:03.593Z,99.99
2023-01-13T08:49:04.223Z,99.99
2023-01-13T08:50:04.932Z,99.99
2023-01-13T08:51:05.657Z,99.99
2023-01-13T08:52:06.738Z,99.99
2023-01-13T08:53:06.951Z,99.99
2023-01-13T08:54:07.656Z,99.99
2023-01-13T08:55:08.359Z,99.99
2023-01-13T08:56:09.082Z,99.99
2023-01-13T08:57:09.878Z,99.99
2023-01-13T08:58:15.914Z,99.99
2023-01-13T08:59:12.168Z,99.99
2023-01-13T09:00:11.865Z,99.99
2023-01-13T09:01:12.655Z,99.99
2023-01-13T09:02:14.061Z,99.99
2023-01-13T09:03:14.307Z,99.99
2023-01-13T09:04:15.021Z,99.99
2023-01-13T09:05:17.739Z,99.99
2023-01-13T09:06:16.572Z,99.99
2023-01-13T09:07:17.265Z,99.99
2023-01-13T09:08:17.971Z,99.99
2023-01-13T09:09:18.704Z,99.99
2023-01-13T09:10:19.413Z,99.99
2023-01-13T09:11:20.125Z,99.99
2023-01-13T09:12:21.247Z,99.99
2023-01-13T09:13:21.451Z,99.99
2023-01-13T09:14:22.154Z,99.99
2023-01-13T09:15:22.883Z,99.99
2023-01-13T09:16:23.588Z,99.99
2023-01-13T09:17:24.772Z,99.99
2023-01-13T09:18:25.047Z,99.99
2023-01-13T09:19:25.740Z,99.99
2023-01-13T09:20:26.525Z,99.99
2023-01-13T09:21:27.246Z,99.99
2023-01-13T09:22:27.943Z,99.99
2023-01-13T09:23:28.657Z,99.99
2023-01-13T09:24:29.361Z,99.99
2023-01-13T09:25:30.077Z,99.99
2023-01-13T09:26:30.777Z,99.99
2023-01-13T09:27:31.759Z,99.99
2023-01-13T09:28:32.462Z,99.99
2023-01-13T09:29:33.182Z,99.99
2023-01-13T09:30:33.878Z,99.99
2023-01-13T09:31:34.660Z,99.99
2023-01-13T09:32:35.338Z,99.99
2023-01-13T09:33:36.033Z,99.99
2023-01-13T09:34:36.728Z,99.99
2023-01-13T09:35:37.422Z,99.99
2023-01-13T09:36:38.129Z,99.99
2023-01-13T09:37:38.873Z,99.99
2023-01-13T09:38:39.575Z,99.99
2023-01-13T09:39:40.321Z,99.99
2023-01-13T09:40:41.028Z,99.99
2023-01-13T09:41:41.733Z,99.99
2023-01-13T09:42:42.751Z,99.99
2023-01-13T09:43:42.950Z,99.99
2023-01-13T09:44:43.666Z,99.99
2023-01-13T09:45:44.366Z,99.99
2023-01-13T09:46:45.127Z,99.99
2023-01-13T09:47:46.271Z,99.99
2023-01-13T09:48:46.477Z,99.99
2023-01-13T09:49:47.122Z,99.99
2023-01-13T09:50:47.829Z,99.99
2023-01-13T09:51:48.534Z,99.99
2023-01-13T09:52:49.248Z,99.99
2023-01-13T09:53:49.965Z,99.99
2023-01-13T09:54:50.656Z,99.99
2023-01-13T09:55:51.365Z,99.99
2023-01-13T09:56:52.112Z,99.99
2023-01-13T09:57:53.252Z,99.99
2023-01-13T09:58:53.450Z,99.99
2023-01-13T09:59:54.159Z,99.99
2023-01-13T10:00:54.881Z,99.99
2023-01-13T10:01:55.579Z,99.99
2023-01-13T10:02:56.771Z,99.99
2023-01-13T10:03:56.975Z,99.99
2023-01-13T10:04:57.725Z,99.99
2023-01-13T10:05:58.610Z,99.99
2023-01-13T10:06:59.314Z,99.99
2023-01-13T10:08:00.276Z,99.99
2023-01-13T10:09:00.968Z,99.99
2023-01-13T10:10:01.668Z,99.99
2023-01-13T10:11:02.379Z,99.99
2023-01-13T10:12:03.093Z,99.99
2023-01-13T10:13:03.799Z,99.99
2023-01-13T10:14:04.506Z,99.99
2023-01-13T10:15:05.225Z,99.99
2023-01-13T10:16:05.983Z,99.99
2023-01-13T10:17:06.645Z,99.99
2023-01-13T10:18:07.412Z,99.99
2023-01-13T10:19:08.081Z,99.99
2023-01-13T10:20:08.780Z,99.99
2023-01-13T10:21:09.490Z,99.99
2023-01-13T10:22:10.211Z,99.99
2023-01-13T10:23:10.918Z,99.99
2023-01-13T10:24:11.619Z,99.99
2023-01-13T10:25:12.378Z,99.99
2023-01-13T10:26:13.139Z,99.99
2023-01-13T10:27:13.896Z,99.99
2023-01-13T10:28:14.622Z,99.99
2023-01-13T10:29:15.325Z,99.99
2023-01-13T10:30:16.030Z,99.99
2023-01-13T10:31:16.806Z,99.99
2023-01-13T10:32:17.447Z,99.99
2023-01-13T10:33:18.273Z,99.99
2023-01-13T10:34:18.988Z,99.99
2023-01-13T10:35:19.666Z,99.99
2023-01-13T10:36:20.373Z,99.99
2023-01-13T10:37:21.079Z,99.99
2023-01-13T10:38:21.796Z,99.99
2023-01-13T10:39:22.500Z,99.99
2023-01-13T10:40:23.209Z,99.99
2023-01-13T10:41:23.920Z,99.99
2023-01-13T10:42:25.242Z,99.99
2023-01-13T10:43:25.752Z,99.99
2023-01-13T10:44:26.018Z,99.99
2023-01-13T10:45:26.721Z,99.99
2023-01-13T10:46:27.470Z,99.99
2023-01-13T10:47:28.170Z,99.99
2023-01-13T10:48:29.278Z,99.99
2023-01-13T10:49:29.487Z,99.99
2023-01-13T10:50:30.138Z,99.99
2023-01-13T10:51:30.829Z,99.99
2023-01-13T10:52:31.604Z,99.99
2023-01-13T10:53:32.761Z,99.99
2023-01-13T10:54:32.999Z,99.99
2023-01-13T10:55:33.664Z,99.99
2023-01-13T10:56:34.398Z,99.99
2023-01-13T10:57:35.103Z,99.99
2023-01-13T10:58:36.253Z,99.99
2023-01-13T10:59:36.454Z,99.99
2023-01-13T11:00:37.161Z,99.99
2023-01-13T11:01:38.022Z,99.99
2023-01-13T11:02:38.912Z,99.99
2023-01-13T11:03:39.780Z,99.99
2023-01-13T11:04:40.529Z,99.99
2023-01-13T11:05:41.189Z,99.99
2023-01-13T11:06:41.896Z,99.99
2023-01-13T11:07:42.598Z,99.99
2023-01-13T11:08:43.751Z,99.99
2023-01-13T11:09:43.969Z,99.99
2023-01-13T11:10:44.685Z,99.99
2023-01-13T11:11:45.402Z,99.99
2023-01-13T11:12:46.211Z,99.99
2023-01-13T11:13:47.291Z,99.65
2023-01-13T11:14:47.479Z,99.99
2023-01-13T11:15:48.195Z,99.55
2023-01-13T11:16:53.555Z,99.55
2023-01-13T11:17:50.498Z,98.58
2023-01-13T11:18:50.276Z,97.15
2023-01-13T11:19:50.980Z,98.22
2023-01-13T11:20:51.689Z,99.86
2023-01-13T11:21:52.409Z,99.80
2023-01-13T11:22:53.127Z,99.91
2023-01-13T11:23:54.255Z,99.99
2023-01-13T11:24:54.483Z,99.85
2023-01-13T11:25:55.172Z,99.95
2023-01-13T11:26:55.895Z,99.75
2023-01-13T11:27:56.639Z,99.99
2023-01-13T11:28:57.773Z,99.99
2023-01-13T11:29:57.980Z,99.99
2023-01-13T11:30:58.776Z,99.99
2023-01-13T11:31:59.475Z,99.99
2023-01-13T11:33:00.185Z,99.99
2023-01-13T11:34:01.285Z,99.99
2023-01-13T11:35:01.532Z,99.99
2023-01-13T11:36:02.180Z,99.99
2023-01-13T11:37:02.885Z,99.99
2023-01-13T11:38:03.600Z,99.99
2023-01-13T11:39:04.769Z,99.99
2023-01-13T11:40:04.963Z,99.99
2023-01-13T11:41:05.671Z,99.99
2023-01-13T11:42:06.384Z,99.99
2023-01-13T11:43:07.099Z,99.99
2023-01-13T11:44:08.258Z,99.99
2023-01-13T11:45:08.470Z,99.99
2023-01-13T11:46:09.194Z,99.99
2023-01-13T11:47:09.914Z,99.99
2023-01-13T11:48:10.604Z,99.99
2023-01-13T11:49:11.349Z,99.99
2023-01-13T11:50:12.056Z,99.99
2023-01-13T11:51:12.731Z,99.99
2023-01-13T11:52:13.438Z,99.99
2023-01-13T11:53:14.144Z,99.99
2023-01-13T11:54:14.869Z,99.99
2023-01-13T11:55:15.572Z,99.99
2023-01-13T11:56:16.270Z,99.99
2023-01-13T11:57:16.975Z,99.99
2023-01-13T11:58:17.696Z,99.99
2023-01-13T11:59:18.415Z,99.99
2023-01-13T12:00:19.136Z,99.99
2023-01-13T12:01:22.980Z,99.99
2023-01-13T12:02:20.445Z,99.99
2023-01-13T12:03:21.237Z,99.99
2023-01-13T12:04:22.284Z,99.99
2023-01-13T12:05:22.487Z,99.99
2023-01-13T12:06:23.130Z,99.99
2023-01-13T12:07:23.834Z,99.99
2023-01-13T12:08:24.537Z,99.99
2023-01-13T12:09:25.268Z,99.99
2023-01-13T12:10:26.007Z,99.99
2023-01-13T12:11:26.709Z,99.99
2023-01-13T12:12:27.417Z,99.99
2023-01-13T12:13:28.117Z,99.99
2023-01-13T12:14:28.842Z,99.99
2023-01-13T12:15:29.536Z,99.99
2023-01-13T12:16:30.444Z,99.99
2023-01-13T12:17:31.156Z,99.99
2023-01-13T12:18:31.875Z,99.99
2023-01-13T12:19:32.782Z,99.99
2023-01-13T12:20:33.536Z,99.99
2023-01-13T12:21:34.205Z,99.99
2023-01-13T12:22:36.839Z,99.99
2023-01-13T12:23:35.565Z,99.99
2023-01-13T12:24:36.770Z,99.99
2023-01-13T12:25:36.984Z,99.99
2023-01-13T12:26:37.682Z,99.99
2023-01-13T12:27:38.435Z,99.99
2023-01-13T12:28:39.364Z,99.99
2023-01-13T12:29:40.359Z,99.99
2023-01-13T12:30:40.640Z,99.99
2023-01-13T12:31:41.495Z,99.99
2023-01-13T12:32:42.195Z,99.99
2023-01-13T12:33:43.004Z,99.99
2023-01-13T12:34:43.683Z,99.99
2023-01-13T12:35:44.378Z,99.99
2023-01-13T12:36:45.042Z,99.99
2023-01-13T12:37:45.735Z,99.99
2023-01-13T12:38:46.456Z,99.99
2023-01-13T12:39:47.161Z,99.99
2023-01-13T12:40:47.878Z,99.99
2023-01-13T12:41:48.580Z,99.99
2023-01-13T12:42:49.286Z,99.99
2023-01-13T12:43:49.999Z,99.99
2023-01-13T12:44:50.774Z,99.99
2023-01-13T12:45:51.556Z,99.99
2023-01-13T12:46:52.228Z,99.99
2023-01-13T12:47:52.934Z,99.99
2023-01-13T12:48:53.642Z,99.99
2023-01-13T12:49:54.389Z,99.99
2023-01-13T12:50:55.086Z,99.99
2023-01-13T12:51:55.764Z,99.99
2023-01-13T12:52:56.468Z,99.99
2023-01-13T12:53:57.204Z,99.99
2023-01-13T12:54:58.454Z,99.99
2023-01-13T12:55:58.579Z,99.99
2023-01-13T12:56:59.287Z,99.99
2023-01-13T12:57:59.996Z,99.99
2023-01-13T12:59:00.713Z,99.99
2023-01-13T13:00:01.787Z,99.99
2023-01-13T13:01:02.196Z,99.99
2023-01-13T13:02:02.644Z,99.99
2023-01-13T13:03:03.531Z,99.99
2023-01-13T13:04:04.213Z,99.99